Moose Factory, Canada
Current Conditions -  °F | °C
As of 8:00 AM on Wednesday 22 Oct 2014 (Local Time) from CYMO Reporting Station
Clear Clear  
Wind Chill: 23°   Ceiling: Unl
Heat Index: 30°   Visibility: 9mi
Dew Point: 27°   Wind: 8mph
Humidity: 86%   Direction: 190°S
Pressure: 30.44"   Gusts: NA
Location:  51.26°N, 80.6°W
Report Text: CYMO 221200Z AUTO 19007KT 9SM CLR M01/M03 A3044 RMK SLP307
Loading
Personal Weather Stations






























Interactive Weather Map
Tropical Storm Tracking
New forecast layout! Learn more

10-Day Weather Forecast

Advertisements
Track Severe Weather on mobile